createdAt,value
2022-09-05T00:00:58.081Z,1.00
2022-09-05T00:02:02.287Z,1.00
2022-09-05T00:03:06.682Z,1.75
2022-09-05T00:04:24.191Z,1.00
2022-09-05T00:05:16.431Z,0.50
2022-09-05T00:06:20.434Z,0.00
2022-09-05T00:07:37.391Z,0.50
2022-09-05T00:08:29.590Z,1.00
2022-09-05T00:09:33.872Z,1.50
2022-09-05T00:11:08.530Z,1.50
2022-09-05T00:11:44.256Z,1.00
2022-09-05T00:12:48.638Z,1.00
2022-09-05T00:13:53.968Z,1.00
2022-09-05T00:15:18.450Z,1.25
2022-09-05T00:16:03.664Z,0.75
2022-09-05T00:17:07.834Z,1.50
2022-09-05T00:21:41.511Z,1.25
2022-09-05T00:24:22.346Z,0.75
2022-09-05T00:24:24.865Z,1.75
2022-09-05T00:24:25.473Z,1.00
2022-09-05T00:24:27.137Z,2.00
2022-09-05T00:24:28.312Z,1.50
2022-09-05T00:25:00.726Z,1.00
2022-09-05T00:25:48.524Z,1.00
2022-09-05T00:26:52.748Z,1.00
2022-09-05T00:27:56.941Z,0.00
2022-09-05T00:29:01.209Z,1.00
2022-09-05T00:31:51.769Z,2.25
2022-09-05T00:31:53.957Z,3.50
2022-09-05T00:32:19.047Z,2.00
2022-09-05T00:33:23.088Z,1.00
2022-09-05T00:34:27.087Z,1.50
2022-09-05T00:35:32.420Z,1.50
2022-09-05T00:36:36.630Z,0.50
2022-09-05T00:37:40.961Z,0.00
2022-09-05T00:38:44.935Z,1.00
2022-09-05T00:40:05.443Z,0.50
2022-09-05T00:40:54.579Z,0.00
2022-09-05T00:41:58.886Z,1.00
2022-09-05T00:43:02.987Z,0.00
2022-09-05T00:44:06.837Z,0.00
2022-09-05T00:45:14.584Z,0.00
2022-09-05T00:46:15.836Z,0.00
2022-09-05T00:47:20.019Z,0.50
2022-09-05T00:48:24.116Z,1.00
2022-09-05T00:49:28.326Z,1.50
2022-09-05T00:50:32.276Z,1.50
2022-09-05T00:51:36.331Z,0.50
2022-09-05T00:52:40.355Z,1.25
2022-09-05T00:53:44.431Z,0.50
2022-09-05T00:54:48.433Z,0.50
2022-09-05T00:55:52.644Z,0.00
2022-09-05T00:56:57.767Z,0.50
2022-09-05T00:58:02.003Z,0.50
2022-09-05T00:59:06.489Z,0.50
2022-09-05T01:00:13.730Z,1.00
2022-09-05T01:01:21.085Z,0.50
2022-09-05T01:02:20.974Z,1.50
2022-09-05T01:03:25.026Z,1.00
2022-09-05T01:04:29.023Z,1.00
2022-09-05T01:05:32.952Z,1.00
2022-09-05T01:06:36.802Z,1.50
2022-09-05T01:07:44.228Z,1.50
2022-09-05T01:08:46.286Z,0.75
2022-09-05T01:09:50.138Z,1.00
2022-09-05T01:10:53.929Z,1.00
2022-09-05T01:11:57.874Z,1.00
2022-09-05T01:13:01.745Z,0.00
2022-09-05T01:14:09.147Z,0.00
2022-09-05T01:15:10.901Z,0.50
2022-09-05T01:16:15.290Z,1.00
2022-09-05T01:17:19.314Z,0.50
2022-09-05T01:18:23.418Z,1.00
2022-09-05T01:19:27.311Z,1.00
2022-09-05T01:20:31.474Z,1.00
2022-09-05T01:21:36.241Z,1.00
2022-09-05T01:22:40.228Z,0.75
2022-09-05T01:23:44.342Z,1.00
2022-09-05T01:24:48.446Z,0.50
2022-09-05T01:25:54.742Z,0.50
2022-09-05T01:26:57.575Z,1.50
2022-09-05T01:29:13.762Z,1.00
2022-09-05T01:29:16.373Z,1.25
2022-09-05T01:30:12.138Z,0.00
2022-09-05T01:31:16.270Z,0.75
2022-09-05T01:32:20.129Z,1.00
2022-09-05T01:33:24.048Z,0.50
2022-09-05T01:34:31.898Z,0.50
2022-09-05T01:35:33.373Z,0.00
2022-09-05T01:36:38.602Z,0.00
2022-09-05T01:37:42.687Z,0.00
2022-09-05T01:39:16.542Z,0.00
2022-09-05T01:40:14.729Z,0.50
2022-09-05T01:41:04.613Z,1.00
2022-09-05T01:42:03.228Z,1.00
2022-09-05T01:43:07.503Z,0.75
2022-09-05T01:44:11.525Z,0.75
2022-09-05T01:45:15.813Z,1.50
2022-09-05T01:46:19.985Z,1.00
2022-09-05T01:47:29.446Z,1.00
2022-09-05T01:48:29.267Z,1.00
2022-09-05T01:49:33.577Z,0.50
2022-09-05T01:50:38.912Z,0.25
2022-09-05T01:51:42.912Z,0.00
2022-09-05T01:52:57.545Z,0.00
2022-09-05T01:53:52.963Z,0.75
2022-09-05T01:54:57.479Z,0.50
2022-09-05T01:56:05.072Z,1.00
2022-09-05T01:57:07.013Z,1.00
2022-09-05T01:58:11.015Z,1.50
2022-09-05T01:59:15.321Z,0.00
2022-09-05T02:00:19.304Z,0.50
2022-09-05T02:01:25.514Z,0.75
2022-09-05T02:02:28.881Z,1.00
2022-09-05T02:03:33.195Z,1.25
2022-09-05T02:04:37.374Z,1.00
2022-09-05T02:05:47.537Z,0.00
2022-09-05T02:06:47.022Z,1.00
2022-09-05T02:07:51.348Z,0.75
2022-09-05T02:08:55.429Z,0.00
2022-09-05T02:09:59.661Z,1.25
2022-09-05T02:11:05.174Z,1.50
2022-09-05T02:12:09.273Z,0.75
2022-09-05T02:13:13.554Z,0.50
2022-09-05T02:14:27.093Z,0.50
2022-09-05T02:15:22.813Z,0.50
2022-09-05T02:16:27.000Z,0.00
2022-09-05T02:17:49.423Z,0.00
2022-09-05T02:18:36.274Z,1.00
2022-09-05T02:19:40.351Z,1.00
2022-09-05T02:20:44.373Z,1.00
2022-09-05T02:21:56.838Z,0.00
2022-09-05T02:22:53.344Z,1.00
2022-09-05T02:23:57.279Z,0.50
2022-09-05T02:25:18.138Z,0.00
2022-09-05T02:26:06.187Z,1.00
2022-09-05T02:27:10.836Z,0.50
2022-09-05T02:28:15.126Z,1.00
2022-09-05T02:29:28.631Z,0.75
2022-09-05T02:30:24.589Z,0.50
2022-09-05T02:31:28.659Z,0.75
2022-09-05T02:32:35.921Z,0.50
2022-09-05T02:33:41.375Z,0.00
2022-09-05T02:34:45.563Z,0.75
2022-09-05T02:35:49.787Z,0.50
2022-09-05T02:36:53.873Z,1.50
2022-09-05T02:39:02.515Z,1.00
2022-09-05T02:45:01.206Z,0.50
2022-09-05T02:45:03.661Z,0.50
2022-09-05T02:45:08.708Z,0.50
2022-09-05T02:45:09.111Z,1.00
2022-09-05T02:45:09.270Z,1.00
2022-09-05T02:45:14.817Z,0.75
2022-09-05T02:45:47.135Z,1.00
2022-09-05T02:46:51.226Z,1.00
2022-09-05T02:47:55.306Z,1.00
2022-09-05T02:48:59.388Z,0.50
2022-09-05T02:52:19.874Z,1.50
2022-09-05T02:55:49.371Z,1.50
2022-09-05T02:57:26.037Z,1.00
2022-09-05T02:57:27.451Z,0.50
2022-09-05T02:57:35.088Z,2.00
2022-09-05T02:57:42.873Z,1.50
2022-09-05T02:58:04.931Z,1.25
2022-09-05T02:58:06.649Z,0.50
2022-09-05T02:59:08.599Z,1.50
2022-09-05T03:00:02.457Z,1.00
2022-09-05T03:01:06.697Z,0.75
2022-09-05T03:02:26.051Z,1.00
2022-09-05T03:03:16.221Z,1.50
2022-09-05T03:04:26.246Z,0.25
2022-09-05T03:05:30.271Z,0.75
2022-09-05T03:06:35.369Z,1.00
2022-09-05T03:09:14.864Z,2.00
2022-09-05T03:10:04.684Z,1.50
2022-09-05T03:11:20.933Z,1.50
2022-09-05T03:12:28.951Z,1.00
2022-09-05T03:13:30.200Z,2.50
2022-09-05T03:14:34.307Z,1.00
2022-09-05T03:15:44.576Z,1.00
2022-09-05T03:16:48.686Z,1.00
2022-09-05T03:18:20.346Z,1.50
2022-09-05T03:19:03.622Z,2.00
2022-09-05T03:20:07.481Z,1.50
2022-09-05T03:21:11.418Z,1.00
2022-09-05T03:22:15.519Z,1.00
2022-09-05T03:23:19.626Z,1.00
2022-09-05T03:24:23.625Z,1.00
2022-09-05T03:25:30.622Z,0.00
2022-09-05T03:26:34.701Z,0.75
2022-09-05T03:27:38.802Z,0.50
2022-09-05T03:28:42.795Z,0.50
2022-09-05T03:29:46.809Z,1.25
2022-09-05T03:30:51.762Z,1.50
2022-09-05T03:31:55.749Z,1.25
2022-09-05T03:32:59.613Z,0.50
2022-09-05T03:34:03.503Z,0.50
2022-09-05T03:35:08.816Z,0.50
2022-09-05T03:36:12.515Z,0.50
2022-09-05T03:37:16.335Z,1.50
2022-09-05T03:38:20.394Z,1.75
2022-09-05T03:39:24.574Z,1.50
2022-09-05T03:40:28.696Z,1.50
2022-09-05T03:41:36.738Z,1.50
2022-09-05T03:42:37.785Z,1.00
2022-09-05T03:43:41.769Z,0.50
2022-09-05T03:44:45.892Z,0.50
2022-09-05T03:45:50.037Z,1.00
2022-09-05T03:46:53.891Z,1.50
2022-09-05T03:48:02.284Z,1.00
2022-09-05T03:49:17.632Z,1.25
2022-09-05T03:55:42.736Z,1.00
2022-09-05T03:57:07.465Z,0.00
2022-09-05T03:57:07.848Z,1.00
2022-09-05T03:57:11.363Z,0.50
2022-09-05T03:57:11.962Z,1.50
2022-09-05T03:57:15.589Z,0.50
2022-09-05T03:57:18.605Z,1.50
2022-09-05T03:57:44.571Z,0.00
2022-09-05T04:00:08.534Z,0.25
2022-09-05T04:01:41.450Z,1.50
2022-09-05T04:03:35.849Z,1.50
2022-09-05T04:08:06.669Z,1.25
2022-09-05T04:08:16.280Z,0.50
2022-09-05T04:08:16.871Z,1.50
2022-09-05T04:08:17.177Z,1.50
2022-09-05T04:08:24.253Z,0.50
2022-09-05T04:09:01.807Z,1.25
2022-09-05T04:10:17.800Z,1.00
2022-09-05T04:11:21.928Z,0.75
2022-09-05T04:12:26.131Z,2.50
2022-09-05T04:13:30.131Z,2.75
2022-09-05T04:14:34.439Z,2.50
2022-09-05T04:15:39.874Z,1.50
2022-09-05T04:16:44.313Z,1.50
2022-09-05T04:17:48.609Z,1.50
2022-09-05T04:18:52.982Z,0.75
2022-09-05T04:19:57.312Z,0.00
2022-09-05T04:21:01.521Z,1.00
2022-09-05T04:22:06.531Z,0.00
2022-09-05T04:23:11.158Z,0.50
2022-09-05T04:24:15.055Z,1.00
2022-09-05T04:25:19.468Z,1.00
2022-09-05T04:26:23.383Z,1.00
2022-09-05T04:27:27.809Z,1.50
2022-09-05T04:28:32.526Z,1.25
2022-09-05T04:29:36.911Z,0.00
2022-09-05T04:32:17.715Z,0.50
2022-09-05T04:33:06.121Z,0.50
2022-09-05T04:34:10.034Z,0.25
2022-09-05T04:35:13.982Z,0.50
2022-09-05T04:36:18.543Z,0.75
2022-09-05T04:37:22.935Z,0.50
2022-09-05T04:38:26.839Z,1.00
2022-09-05T04:39:30.878Z,0.75
2022-09-05T04:40:34.936Z,1.50
2022-09-05T04:41:39.458Z,1.50
2022-09-05T04:42:44.169Z,1.00
2022-09-05T04:43:48.275Z,1.00
2022-09-05T04:44:55.933Z,0.50
2022-09-05T04:45:57.300Z,1.50
2022-09-05T04:47:01.178Z,2.00
2022-09-05T04:48:05.197Z,1.50
2022-09-05T04:49:10.217Z,0.00
2022-09-05T04:50:14.631Z,1.00
2022-09-05T04:51:19.957Z,1.25
2022-09-05T04:52:31.662Z,1.25
2022-09-05T04:53:29.092Z,1.25
2022-09-05T04:54:33.310Z,0.50
2022-09-05T04:55:37.308Z,0.50
2022-09-05T04:56:42.755Z,0.75
2022-09-05T04:57:46.735Z,1.00
2022-09-05T05:00:54.328Z,1.00
2022-09-05T05:05:58.532Z,1.00
2022-09-05T05:06:02.417Z,1.00
2022-09-05T05:06:08.910Z,0.75
2022-09-05T05:06:09.242Z,1.00
2022-09-05T05:06:10.661Z,0.50
2022-09-05T05:06:15.942Z,0.50
2022-09-05T05:06:46.441Z,1.00
2022-09-05T05:07:33.717Z,1.25
2022-09-05T05:08:39.213Z,0.25
2022-09-05T05:16:54.348Z,1.00
2022-09-05T05:17:57.194Z,0.50
2022-09-05T05:17:58.093Z,0.50
2022-09-05T05:18:01.916Z,1.50
2022-09-05T05:18:06.169Z,1.00
2022-09-05T05:18:09.598Z,0.50
2022-09-05T05:18:10.549Z,0.50
2022-09-05T05:18:55.005Z,0.50
2022-09-05T05:19:45.773Z,0.75
2022-09-05T05:21:06.407Z,1.00
2022-09-05T05:22:10.364Z,1.00
2022-09-05T05:23:14.571Z,1.00
2022-09-05T05:24:21.878Z,0.00
2022-09-05T05:25:29.637Z,1.25
2022-09-05T05:26:34.969Z,0.50
2022-09-05T05:27:39.173Z,0.50
2022-09-05T05:28:55.463Z,1.00
2022-09-05T05:29:59.671Z,1.50
2022-09-05T05:31:06.707Z,1.50
2022-09-05T05:32:10.946Z,2.00
2022-09-05T05:33:15.972Z,0.75
2022-09-05T05:34:24.809Z,1.00
2022-09-05T05:35:48.390Z,2.00
2022-09-05T05:36:42.187Z,2.00
2022-09-05T05:37:46.443Z,1.75
2022-09-05T05:38:50.730Z,1.50
2022-09-05T05:39:57.520Z,0.50
2022-09-05T05:41:13.675Z,1.00
2022-09-05T05:42:20.536Z,1.00
2022-09-05T05:43:23.419Z,0.50
2022-09-05T05:44:27.524Z,1.00
2022-09-05T05:45:31.626Z,1.00
2022-09-05T05:46:35.881Z,2.50
2022-09-05T05:47:40.094Z,1.25
2022-09-05T05:48:45.602Z,1.00
2022-09-05T05:49:48.652Z,0.50
2022-09-05T05:50:52.670Z,1.50
2022-09-05T05:52:02.707Z,0.50
2022-09-05T05:53:02.097Z,0.50
2022-09-05T05:54:06.056Z,1.50
2022-09-05T05:55:52.392Z,1.00
2022-09-05T05:56:18.192Z,1.00
2022-09-05T05:57:22.390Z,1.00
2022-09-05T05:58:26.505Z,1.00
2022-09-05T05:59:31.414Z,1.50
2022-09-05T06:00:35.285Z,1.00
2022-09-05T06:01:39.327Z,0.50
2022-09-05T06:02:43.639Z,0.75
2022-09-05T06:03:48.055Z,1.25
2022-09-05T06:04:52.248Z,1.50
2022-09-05T06:05:56.466Z,2.50
2022-09-05T06:07:00.671Z,1.25
2022-09-05T06:10:39.075Z,0.75
2022-09-05T06:14:06.538Z,2.00
2022-09-05T06:14:51.107Z,2.00
2022-09-05T06:14:55.799Z,1.50
2022-09-05T06:14:58.129Z,1.50
2022-09-05T06:15:02.058Z,1.00
2022-09-05T06:15:09.089Z,1.00
2022-09-05T06:15:40.970Z,1.00
2022-09-05T06:16:45.001Z,1.00
2022-09-05T06:17:49.100Z,0.75
2022-09-05T06:19:05.228Z,1.00
2022-09-05T06:21:28.658Z,1.25
2022-09-05T06:22:07.052Z,0.50
2022-09-05T06:23:40.338Z,1.00
2022-09-05T06:24:44.743Z,1.50
2022-09-05T06:25:52.093Z,1.00
2022-09-05T06:26:56.306Z,1.25
2022-09-05T06:28:17.673Z,3.00
2022-09-05T06:29:05.836Z,3.25
2022-09-05T06:30:10.353Z,1.00
2022-09-05T06:31:30.732Z,1.00
2022-09-05T06:32:20.151Z,1.00
2022-09-05T06:33:24.547Z,1.50
2022-09-05T06:34:35.000Z,1.50
2022-09-05T06:35:33.736Z,1.00
2022-09-05T06:36:37.591Z,1.00
2022-09-05T06:37:41.425Z,1.50
2022-09-05T06:38:45.330Z,0.25
2022-09-05T06:39:49.457Z,0.50
2022-09-05T06:40:53.540Z,0.00
2022-09-05T06:41:57.533Z,1.50
2022-09-05T06:43:01.654Z,2.00
2022-09-05T06:44:05.741Z,1.00
2022-09-05T06:45:27.594Z,1.25
2022-09-05T06:46:15.565Z,2.00
2022-09-05T06:47:33.776Z,1.00
2022-09-05T06:48:44.522Z,2.50
2022-09-05T06:49:37.302Z,2.50
2022-09-05T06:50:48.213Z,2.50
2022-09-05T06:51:44.223Z,0.50
2022-09-05T06:52:46.314Z,1.00
2022-09-05T06:53:50.251Z,1.25
2022-09-05T06:54:59.989Z,1.75
2022-09-05T06:55:59.379Z,1.25
2022-09-05T06:57:03.378Z,2.50
2022-09-05T06:58:07.383Z,2.50
2022-09-05T06:59:11.387Z,1.00
2022-09-05T07:00:21.930Z,0.50
2022-09-05T07:01:20.455Z,2.50
2022-09-05T07:02:57.986Z,2.50
2022-09-05T07:03:32.475Z,1.00
2022-09-05T07:05:37.562Z,1.75
2022-09-05T07:05:45.247Z,2.00
2022-09-05T07:07:02.263Z,2.00
2022-09-05T07:07:50.928Z,1.50
2022-09-05T07:08:54.778Z,1.75
2022-09-05T07:09:59.790Z,1.00
2022-09-05T07:11:15.003Z,1.50
2022-09-05T07:12:08.919Z,1.00
2022-09-05T07:13:12.920Z,2.50
2022-09-05T07:14:17.021Z,3.50
2022-09-05T07:15:21.028Z,2.50
2022-09-05T07:16:38.142Z,1.50
2022-09-05T07:17:31.180Z,1.50
2022-09-05T07:18:35.278Z,1.00
2022-09-05T07:19:39.279Z,2.00
2022-09-05T07:21:17.517Z,2.50
2022-09-05T07:21:48.311Z,1.75
2022-09-05T07:22:53.331Z,1.75
2022-09-05T07:24:09.785Z,3.25
2022-09-05T07:25:02.460Z,3.50
2022-09-05T07:26:07.486Z,1.75
2022-09-05T07:27:12.717Z,1.00
2022-09-05T07:28:29.186Z,2.00
2022-09-05T07:29:21.744Z,2.00
2022-09-05T07:30:25.795Z,2.50
2022-09-05T07:31:37.573Z,1.50
2022-09-05T07:32:34.869Z,1.25
2022-09-05T07:33:38.728Z,1.00
2022-09-05T07:34:42.883Z,1.50
2022-09-05T07:35:46.978Z,2.00
2022-09-05T07:36:50.897Z,2.50
2022-09-05T07:37:56.002Z,3.50
2022-09-05T07:39:25.319Z,3.25
2022-09-05T07:40:25.008Z,2.00
2022-09-05T07:41:10.363Z,2.50
2022-09-05T07:42:14.361Z,2.00
2022-09-05T07:43:19.000Z,2.50
2022-09-05T07:44:23.180Z,2.00
2022-09-05T07:45:27.103Z,2.50
2022-09-05T07:46:31.088Z,2.50
2022-09-05T07:47:34.961Z,1.50
2022-09-05T07:48:38.737Z,2.00
2022-09-05T07:49:53.243Z,2.00
2022-09-05T07:54:10.349Z,2.50
2022-09-05T07:56:51.808Z,2.25
2022-09-05T07:56:54.442Z,1.75
2022-09-05T07:57:04.919Z,2.00
2022-09-05T07:57:06.012Z,3.00
2022-09-05T07:57:08.067Z,1.50
2022-09-05T07:57:30.226Z,2.00
2022-09-05T07:58:23.285Z,2.50
2022-09-05T07:59:27.389Z,1.00
2022-09-05T08:00:31.501Z,0.50
2022-09-05T08:01:39.653Z,0.75
2022-09-05T08:02:46.466Z,1.50
2022-09-05T08:03:48.921Z,2.50
2022-09-05T08:04:53.210Z,2.00
2022-09-05T08:05:57.432Z,2.00
2022-09-05T08:07:46.737Z,2.50
2022-09-05T08:08:13.633Z,1.50
2022-09-05T08:09:35.240Z,2.00
2022-09-05T08:10:31.012Z,2.00
2022-09-05T08:13:23.939Z,2.00
2022-09-05T08:14:38.432Z,3.00
2022-09-05T08:15:04.271Z,1.25
2022-09-05T08:16:13.255Z,1.00
2022-09-05T08:17:14.926Z,1.75
2022-09-05T08:18:19.033Z,3.50
2022-09-05T08:19:23.336Z,1.25
2022-09-05T08:20:27.266Z,2.00
2022-09-05T08:21:31.232Z,1.00
2022-09-05T08:22:35.248Z,1.75
2022-09-05T08:23:40.227Z,3.25
2022-09-05T08:24:44.045Z,1.50
2022-09-05T08:25:56.748Z,0.50
2022-09-05T08:26:52.991Z,0.00
2022-09-05T08:27:57.092Z,1.25
2022-09-05T08:29:01.088Z,1.00
2022-09-05T08:30:24.536Z,1.50
2022-09-05T08:31:10.353Z,1.00
2022-09-05T08:32:14.286Z,1.00
2022-09-05T08:33:18.132Z,1.00
2022-09-05T08:34:31.515Z,2.00
2022-09-05T08:35:27.037Z,2.50
2022-09-05T08:36:31.037Z,2.25
2022-09-05T08:37:35.043Z,1.50
2022-09-05T08:38:40.826Z,2.00
2022-09-05T08:39:44.722Z,1.50
2022-09-05T08:40:49.092Z,1.50
2022-09-05T08:42:00.901Z,3.25
2022-09-05T08:46:36.134Z,1.75
2022-09-05T08:46:36.519Z,2.00
2022-09-05T08:46:42.970Z,1.50
2022-09-05T08:46:46.925Z,2.00
2022-09-05T08:47:20.029Z,2.50
2022-09-05T08:48:24.063Z,2.00
2022-09-05T08:49:32.241Z,1.75
2022-09-05T08:50:33.191Z,1.00
2022-09-05T08:51:44.742Z,1.50
2022-09-05T08:52:42.727Z,1.25
2022-09-05T08:53:47.220Z,1.50
2022-09-05T08:54:54.846Z,2.00
2022-09-05T08:55:56.781Z,2.00
2022-09-05T08:57:00.986Z,2.00
2022-09-05T08:58:05.394Z,1.50
2022-09-05T08:59:27.823Z,1.50
2022-09-05T09:00:20.289Z,2.50
2022-09-05T09:01:20.269Z,2.25
2022-09-05T09:02:46.905Z,0.50
2022-09-05T09:03:29.508Z,1.00
2022-09-05T09:05:02.208Z,1.50
2022-09-05T09:05:58.121Z,1.50
2022-09-05T09:06:44.264Z,2.00
2022-09-05T09:07:51.330Z,2.00
2022-09-05T09:08:54.698Z,1.25
2022-09-05T09:09:58.933Z,1.50
2022-09-05T09:11:03.239Z,1.00
2022-09-05T09:12:07.448Z,1.75
2022-09-05T09:13:11.551Z,2.00
2022-09-05T09:14:30.418Z,2.50
2022-09-05T09:15:20.497Z,1.50
2022-09-05T09:16:24.510Z,1.00
2022-09-05T09:17:28.464Z,1.50
2022-09-05T09:18:35.942Z,1.00
2022-09-05T09:19:40.887Z,1.00
2022-09-05T09:20:45.417Z,1.00
2022-09-05T09:21:49.448Z,1.25
2022-09-05T09:22:53.392Z,1.50
2022-09-05T09:23:57.250Z,1.25
2022-09-05T09:25:14.254Z,1.00
2022-09-05T09:26:06.530Z,1.25
2022-09-05T09:27:10.483Z,1.50
2022-09-05T09:28:46.645Z,1.50
2022-09-05T09:29:19.548Z,1.00
2022-09-05T09:30:23.555Z,1.50
2022-09-05T09:31:27.567Z,2.25
2022-09-05T09:32:31.551Z,2.00
2022-09-05T09:33:35.758Z,3.00
2022-09-05T09:34:39.765Z,2.25
2022-09-05T09:35:44.791Z,2.00
2022-09-05T09:36:48.772Z,1.50
2022-09-05T09:37:55.358Z,2.00
2022-09-05T09:38:57.802Z,2.25
2022-09-05T09:40:02.986Z,2.75
2022-09-05T09:41:06.862Z,2.50
2022-09-05T09:42:13.540Z,2.50
2022-09-05T09:43:15.863Z,1.50
2022-09-05T09:44:20.072Z,2.00
2022-09-05T09:45:29.228Z,2.00
2022-09-05T09:46:28.997Z,3.00
2022-09-05T09:47:32.995Z,2.25
2022-09-05T09:48:37.102Z,2.00
2022-09-05T09:49:41.202Z,1.00
2022-09-05T09:50:58.568Z,1.50
2022-09-05T09:51:50.736Z,2.00
2022-09-05T09:52:54.932Z,2.00
2022-09-05T09:53:59.148Z,2.50
2022-09-05T09:55:03.459Z,1.00
2022-09-05T09:56:08.791Z,1.25
2022-09-05T09:57:13.098Z,2.75
2022-09-05T09:58:17.099Z,2.00
2022-09-05T09:59:21.302Z,0.75
2022-09-05T10:00:25.407Z,0.50
2022-09-05T10:01:35.949Z,1.75
2022-09-05T10:06:55.685Z,1.75
2022-09-05T10:10:33.963Z,1.50
2022-09-05T10:10:38.031Z,1.50
2022-09-05T10:10:39.760Z,1.00
2022-09-05T10:10:43.464Z,2.00
2022-09-05T10:10:46.657Z,1.75
2022-09-05T10:10:47.757Z,1.00
2022-09-05T10:10:55.365Z,1.50
2022-09-05T10:11:49.954Z,1.00
2022-09-05T10:12:21.369Z,2.00
2022-09-05T10:13:31.240Z,2.00
2022-09-05T10:14:49.090Z,2.00
2022-09-05T10:15:40.445Z,2.50
2022-09-05T10:16:45.083Z,2.50
2022-09-05T10:17:49.345Z,1.50
2022-09-05T10:18:53.699Z,1.50
2022-09-05T10:20:12.956Z,2.00
2022-09-05T10:21:16.366Z,1.50
2022-09-05T10:23:13.782Z,1.50
2022-09-05T10:24:17.701Z,1.75
2022-09-05T10:25:21.697Z,2.00
2022-09-05T10:26:25.613Z,1.50
2022-09-05T10:28:50.619Z,2.00
2022-09-05T10:29:54.704Z,1.25
2022-09-05T10:31:48.641Z,1.00
2022-09-05T10:35:04.488Z,1.00
2022-09-05T10:35:05.001Z,0.75
2022-09-05T10:35:14.234Z,1.00
2022-09-05T10:35:22.484Z,0.75
2022-09-05T10:36:24.020Z,2.00
2022-09-05T10:37:28.036Z,2.00
2022-09-05T10:38:32.751Z,0.75
2022-09-05T10:39:37.205Z,0.50
2022-09-05T10:41:11.061Z,1.50
2022-09-05T10:41:46.206Z,2.00
2022-09-05T10:43:00.998Z,2.50
2022-09-05T10:43:55.215Z,2.50
2022-09-05T10:44:59.102Z,4.00
2022-09-05T10:46:03.257Z,2.25
2022-09-05T10:47:13.253Z,0.50
2022-09-05T10:48:17.267Z,1.00
2022-09-05T10:49:21.423Z,1.00
2022-09-05T10:50:25.481Z,1.00
2022-09-05T10:51:29.569Z,1.50
2022-09-05T10:52:33.503Z,0.00
2022-09-05T10:53:39.517Z,0.50
2022-09-05T10:54:42.808Z,1.50
2022-09-05T10:55:50.554Z,2.50
2022-09-05T10:56:52.361Z,2.50
2022-09-05T10:57:56.528Z,3.00
2022-09-05T11:02:15.956Z,1.50
2022-09-05T11:02:21.693Z,1.00
2022-09-05T11:02:27.304Z,0.50
2022-09-05T11:02:29.618Z,1.00
2022-09-05T11:03:22.987Z,1.00
2022-09-05T11:04:26.248Z,1.50
2022-09-05T11:05:30.258Z,2.00
2022-09-05T11:06:34.147Z,3.00
2022-09-05T11:07:38.088Z,1.75
2022-09-05T11:08:42.193Z,2.00
2022-09-05T11:09:46.210Z,1.25
2022-09-05T11:10:50.191Z,1.00
2022-09-05T11:11:54.059Z,1.00
2022-09-05T11:12:58.027Z,1.50
2022-09-05T11:14:01.994Z,3.00
2022-09-05T11:15:05.999Z,2.00
2022-09-05T11:16:13.400Z,1.50
2022-09-05T11:17:14.939Z,0.50
2022-09-05T11:18:18.917Z,0.00
2022-09-05T11:19:22.922Z,0.50
2022-09-05T11:20:34.879Z,1.25
2022-09-05T11:21:31.764Z,1.00
2022-09-05T11:22:47.823Z,1.00
2022-09-05T11:23:57.484Z,2.00
2022-09-05T11:24:57.460Z,2.00
2022-09-05T11:26:01.575Z,2.50
2022-09-05T11:27:24.465Z,3.00
2022-09-05T11:28:11.207Z,1.00
2022-09-05T11:29:15.617Z,1.25
2022-09-05T11:30:30.285Z,1.50
2022-09-05T11:31:24.747Z,0.50
2022-09-05T11:37:48.715Z,2.25
2022-09-05T11:39:46.642Z,0.50
2022-09-05T11:39:49.151Z,1.50
2022-09-05T11:39:51.603Z,2.50
2022-09-05T11:39:53.546Z,4.00
2022-09-05T11:39:58.279Z,1.00
2022-09-05T11:40:02.009Z,1.00
2022-09-05T11:40:28.347Z,1.25
2022-09-05T11:41:13.651Z,1.50
2022-09-05T11:42:17.470Z,1.50
2022-09-05T11:43:21.627Z,1.00
2022-09-05T11:44:27.007Z,2.00
2022-09-05T11:45:30.451Z,1.75
2022-09-05T11:46:34.317Z,2.00
2022-09-05T11:48:58.049Z,2.75
2022-09-05T11:50:02.262Z,4.50
2022-09-05T11:51:07.688Z,3.50
2022-09-05T11:52:11.901Z,3.00
2022-09-05T11:53:16.204Z,3.00
2022-09-05T11:54:20.204Z,3.50
2022-09-05T11:55:24.412Z,3.50
2022-09-05T11:56:28.992Z,6.50
2022-09-05T11:57:34.614Z,6.00
2022-09-05T11:58:44.891Z,5.00
2022-09-05T11:59:44.863Z,4.50
2022-09-05T12:00:47.984Z,5.25
2022-09-05T12:01:51.898Z,4.25
2022-09-05T12:02:56.142Z,3.50
2022-09-05T12:04:01.593Z,4.50
2022-09-05T12:05:50.018Z,2.50
2022-09-05T12:06:10.905Z,1.00
2022-09-05T12:07:15.562Z,3.00
2022-09-05T12:08:19.799Z,1.00
2022-09-05T12:09:24.572Z,2.00
2022-09-05T12:10:47.091Z,3.50
2022-09-05T12:11:33.845Z,2.25
2022-09-05T12:12:41.285Z,2.25
2022-09-05T12:13:43.050Z,3.50
2022-09-05T12:14:54.917Z,3.00
2022-09-05T12:16:07.918Z,1.00
2022-09-05T12:16:59.178Z,2.00
2022-09-05T12:18:03.485Z,2.00
2022-09-05T12:19:19.322Z,2.25
2022-09-05T12:20:17.009Z,2.50
2022-09-05T12:21:19.718Z,2.25
2022-09-05T12:22:24.219Z,1.25
2022-09-05T12:23:55.284Z,1.50
2022-09-05T12:25:27.536Z,1.00
2022-09-05T12:27:39.697Z,2.50
2022-09-05T12:27:44.659Z,2.25
2022-09-05T12:27:53.780Z,2.75
2022-09-05T12:29:33.736Z,2.75
2022-09-05T12:30:01.836Z,3.25
2022-09-05T12:32:06.909Z,1.00
2022-09-05T12:33:48.049Z,1.50
2022-09-05T12:36:02.754Z,1.00
2022-09-05T12:36:08.779Z,2.00
2022-09-05T12:36:10.874Z,2.00
2022-09-05T12:40:52.923Z,1.50
2022-09-05T12:40:55.967Z,2.50
2022-09-05T12:41:32.970Z,1.00
2022-09-05T12:41:37.514Z,2.00
2022-09-05T12:42:09.540Z,2.50
2022-09-05T12:42:22.215Z,1.00
2022-09-05T12:44:37.033Z,2.00
2022-09-05T12:44:40.972Z,2.00
2022-09-05T12:45:35.211Z,1.00
2022-09-05T12:46:47.839Z,1.50
2022-09-05T12:47:52.237Z,2.00
2022-09-05T12:49:08.529Z,3.00
2022-09-05T12:50:14.566Z,2.50
2022-09-05T12:51:45.045Z,1.25
2022-09-05T12:52:22.590Z,2.00
2022-09-05T12:53:26.360Z,2.00
2022-09-05T12:54:33.230Z,1.50
2022-09-05T12:55:47.593Z,2.00
2022-09-05T13:01:09.539Z,2.00
2022-09-05T13:02:02.843Z,3.00
2022-09-05T13:03:02.254Z,1.50
2022-09-05T13:03:02.402Z,2.00
2022-09-05T13:03:09.386Z,1.00
2022-09-05T13:03:11.796Z,2.00
2022-09-05T13:04:46.434Z,1.50
2022-09-05T13:05:48.814Z,1.00
2022-09-05T13:06:52.743Z,1.50
2022-09-05T13:07:56.583Z,2.75
2022-09-05T13:09:00.583Z,1.75
2022-09-05T13:11:17.260Z,1.25
2022-09-05T13:14:48.704Z,0.75
2022-09-05T13:14:55.051Z,1.50
2022-09-05T13:14:56.314Z,1.25
2022-09-05T13:14:57.191Z,1.75
2022-09-05T13:15:30.045Z,1.50
2022-09-05T13:18:06.192Z,2.00
2022-09-05T13:19:10.191Z,2.25
2022-09-05T13:20:14.070Z,2.25
2022-09-05T13:21:23.357Z,2.00
2022-09-05T13:22:22.999Z,1.50
2022-09-05T13:23:27.295Z,2.25
2022-09-05T13:24:31.182Z,2.50
2022-09-05T13:25:35.107Z,2.25
2022-09-05T13:26:39.119Z,1.75
2022-09-05T13:27:43.107Z,3.50
2022-09-05T13:28:47.317Z,2.00
2022-09-05T13:31:18.249Z,0.75
2022-09-05T13:34:42.835Z,1.50
2022-09-05T13:37:55.782Z,2.00
2022-09-05T13:37:59.205Z,1.25
2022-09-05T13:38:02.272Z,2.00
2022-09-05T13:38:02.273Z,1.00
2022-09-05T13:38:03.243Z,1.00
2022-09-05T13:38:04.489Z,1.50
2022-09-05T13:38:48.813Z,0.75
2022-09-05T13:39:37.750Z,2.00
2022-09-05T13:40:42.138Z,3.00
2022-09-05T13:41:49.357Z,0.75
2022-09-05T13:42:53.479Z,2.00
2022-09-05T13:44:00.445Z,0.75
2022-09-05T13:45:02.709Z,1.00
2022-09-05T13:46:18.716Z,1.00
2022-09-05T13:47:29.725Z,1.75
2022-09-05T13:48:28.620Z,1.50
2022-09-05T13:50:52.904Z,0.25
2022-09-05T13:52:06.224Z,1.50
2022-09-05T13:53:14.756Z,0.00
2022-09-05T13:54:15.670Z,0.50
2022-09-05T13:55:19.659Z,1.00
2022-09-05T13:56:26.281Z,1.00
2022-09-05T13:57:31.894Z,0.75
2022-09-05T13:58:35.247Z,0.50
2022-09-05T13:59:39.165Z,0.50
2022-09-05T14:00:43.052Z,0.00
2022-09-05T14:02:19.918Z,2.75
2022-09-05T14:03:57.280Z,1.25
2022-09-05T14:05:05.737Z,0.50
2022-09-05T14:06:34.386Z,0.50
2022-09-05T14:08:16.886Z,0.00
2022-09-05T14:09:38.032Z,0.75
2022-09-05T14:10:26.116Z,0.50
2022-09-05T14:11:30.226Z,1.00
2022-09-05T14:12:34.121Z,1.00
2022-09-05T14:13:38.031Z,0.25
2022-09-05T14:15:52.336Z,0.00
2022-09-05T14:16:53.783Z,0.50
2022-09-05T14:17:58.188Z,0.50
2022-09-05T14:19:02.325Z,0.00
2022-09-05T14:20:06.543Z,1.25
2022-09-05T14:21:10.767Z,0.00
2022-09-05T14:22:22.444Z,1.00
2022-09-05T14:23:20.254Z,2.00
2022-09-05T14:24:27.903Z,1.00
2022-09-05T14:25:29.721Z,1.00
2022-09-05T14:26:33.825Z,0.50
2022-09-05T14:27:37.927Z,1.25
2022-09-05T14:28:42.136Z,0.50
2022-09-05T14:29:47.369Z,1.00
2022-09-05T14:32:27.599Z,1.00
2022-09-05T14:37:37.292Z,1.50
2022-09-05T14:37:43.566Z,1.00
2022-09-05T14:37:44.371Z,1.00
2022-09-05T14:37:52.209Z,1.50
2022-09-05T14:37:54.003Z,1.00
2022-09-05T14:38:00.773Z,1.25
2022-09-05T14:38:27.507Z,1.00
2022-09-05T14:39:36.121Z,1.00
2022-09-05T14:40:52.353Z,1.00
2022-09-05T14:42:07.611Z,1.75
2022-09-05T14:43:01.279Z,1.00
2022-09-05T14:44:17.869Z,1.50